createdAt,value
2018-12-27T00:00:40.334Z,-1.40
2018-12-27T00:03:08.781Z,-1.30
2018-12-27T00:05:37.215Z,-1.20
2018-12-27T00:08:05.804Z,-1.20
2018-12-27T00:10:34.222Z,-1.20
2018-12-27T00:13:02.669Z,-1.20
2018-12-27T00:15:31.069Z,-1.10
2018-12-27T00:17:59.535Z,-1.20
2018-12-27T00:20:27.929Z,-1.20
2018-12-27T00:22:56.386Z,-1.20
2018-12-27T00:25:24.795Z,-1.20
2018-12-27T00:27:53.245Z,-1.10
2018-12-27T00:30:21.829Z,-1.10
2018-12-27T00:32:50.745Z,-1.20
2018-12-27T00:35:19.415Z,-1.30
2018-12-27T00:37:47.996Z,-1.30
2018-12-27T00:40:16.931Z,-1.40
2018-12-27T00:42:45.797Z,-1.40
2018-12-27T00:45:14.354Z,-1.30
2018-12-27T00:47:42.938Z,-1.40
2018-12-27T00:50:11.496Z,-1.40
2018-12-27T00:52:40.353Z,-1.40
2018-12-27T00:55:08.918Z,-1.30
2018-12-27T00:57:37.561Z,-1.30
2018-12-27T01:00:07.514Z,-1.20
2018-12-27T01:02:36.789Z,-1.10
2018-12-27T01:05:05.362Z,-1.20
2018-12-27T01:07:33.942Z,-1.10
2018-12-27T01:10:02.524Z,-1.10
2018-12-27T01:12:31.391Z,-1.10
2018-12-27T01:14:59.953Z,-1.20
2018-12-27T01:17:28.536Z,-1.40
2018-12-27T01:19:57.487Z,-1.30
2018-12-27T01:22:26.057Z,-1.40
2018-12-27T01:24:54.665Z,-1.40
2018-12-27T01:27:23.662Z,-1.30
2018-12-27T01:29:52.212Z,-1.30
2018-12-27T01:32:20.840Z,-1.40
2018-12-27T01:34:49.441Z,-1.40
2018-12-27T01:37:18.009Z,-1.40
2018-12-27T01:39:46.579Z,-1.30
2018-12-27T01:42:15.144Z,-1.30
2018-12-27T01:44:44.024Z,-1.40
2018-12-27T01:47:12.580Z,-1.40
2018-12-27T01:49:41.390Z,-1.40
2018-12-27T01:52:09.985Z,-1.30
2018-12-27T01:54:38.587Z,-1.40
2018-12-27T01:57:07.151Z,-1.40
2018-12-27T01:59:35.737Z,-1.50
2018-12-27T02:02:04.317Z,-1.60
2018-12-27T02:04:32.872Z,-1.60
2018-12-27T02:07:01.444Z,-1.50
2018-12-27T02:09:30.021Z,-1.50
2018-12-27T02:11:58.691Z,-1.40
2018-12-27T02:14:27.430Z,-1.30
2018-12-27T02:16:55.979Z,-1.20
2018-12-27T02:19:24.935Z,-1.10
2018-12-27T02:21:53.603Z,-1.10
2018-12-27T02:24:22.210Z,-1.10
2018-12-27T02:26:50.787Z,-1.20
2018-12-27T02:29:19.407Z,-1.30
2018-12-27T02:31:48.032Z,-1.40
2018-12-27T02:34:16.685Z,-1.40
2018-12-27T02:36:45.345Z,-1.40
2018-12-27T02:39:13.914Z,-1.30
2018-12-27T02:41:42.482Z,-1.20
2018-12-27T02:44:11.108Z,-1.30
2018-12-27T02:46:39.709Z,-1.40
2018-12-27T02:49:08.385Z,-1.40
2018-12-27T02:51:37.077Z,-1.40
2018-12-27T02:54:05.699Z,-1.50
2018-12-27T02:56:34.601Z,-1.60
2018-12-27T02:59:03.505Z,-1.70
2018-12-27T03:01:32.093Z,-1.70
2018-12-27T03:04:00.900Z,-1.60
2018-12-27T03:06:29.577Z,-1.60
2018-12-27T03:08:58.181Z,-1.60
2018-12-27T03:11:26.802Z,-1.60
2018-12-27T03:13:55.411Z,-1.60
2018-12-27T03:16:24.077Z,-1.50
2018-12-27T03:18:52.689Z,-1.60
2018-12-27T03:21:21.295Z,-1.60
2018-12-27T03:23:49.942Z,-1.60
2018-12-27T03:26:18.570Z,-1.60
2018-12-27T03:28:47.229Z,-1.70
2018-12-27T03:31:15.802Z,-1.70
2018-12-27T03:33:52.495Z,-1.70
2018-12-27T03:36:14.757Z,-1.80
2018-12-27T03:38:43.368Z,-1.80
2018-12-27T03:41:11.929Z,-1.70
2018-12-27T03:43:40.509Z,-1.70
2018-12-27T03:46:09.371Z,-1.60
2018-12-27T03:48:37.936Z,-1.60
2018-12-27T03:51:06.501Z,-1.50
2018-12-27T03:53:35.105Z,-1.50
2018-12-27T03:56:03.690Z,-1.40
2018-12-27T03:58:32.313Z,-1.40
2018-12-27T04:01:00.873Z,-1.40
2018-12-27T04:03:29.505Z,-1.40
2018-12-27T04:05:58.083Z,-1.40
2018-12-27T04:08:26.642Z,-1.30
2018-12-27T04:10:55.226Z,-1.30
2018-12-27T04:13:23.832Z,-1.50
2018-12-27T04:15:52.357Z,-1.40
2018-12-27T04:18:20.750Z,-1.50
2018-12-27T04:20:49.189Z,-1.50
2018-12-27T04:23:18.061Z,-1.50
2018-12-27T04:25:46.606Z,-1.60
2018-12-27T04:28:15.049Z,-1.50
2018-12-27T04:30:43.800Z,-1.40
2018-12-27T04:33:14.525Z,-1.40
2018-12-27T04:35:43.698Z,-1.30
2018-12-27T04:38:12.077Z,-1.40
2018-12-27T04:40:40.770Z,-1.50
2018-12-27T04:43:09.161Z,-1.60
2018-12-27T04:45:37.573Z,-1.70
2018-12-27T04:48:06.033Z,-1.80
2018-12-27T04:50:34.482Z,-1.70
2018-12-27T04:53:02.869Z,-1.50
2018-12-27T04:55:31.294Z,-1.30
2018-12-27T04:57:59.697Z,-1.20
2018-12-27T05:00:28.109Z,-1.20
2018-12-27T05:02:56.558Z,-1.10
2018-12-27T05:05:25.007Z,-1.00
2018-12-27T05:07:53.437Z,-1.00
2018-12-27T05:10:21.869Z,-1.00
2018-12-27T05:12:50.386Z,-1.20
2018-12-27T05:15:18.826Z,-1.20
2018-12-27T05:17:47.358Z,-1.40
2018-12-27T05:20:15.791Z,-1.50
2018-12-27T05:22:44.225Z,-1.60
2018-12-27T05:25:12.625Z,-1.70
2018-12-27T05:27:41.349Z,-1.70
2018-12-27T05:30:09.757Z,-1.70
2018-12-27T05:32:38.170Z,-1.70
2018-12-27T05:35:06.581Z,-1.60
2018-12-27T05:37:35.005Z,-1.50
2018-12-27T05:40:05.540Z,-1.40
2018-12-27T05:42:33.999Z,-1.50
2018-12-27T05:45:02.681Z,-1.60
2018-12-27T05:47:31.148Z,-1.60
2018-12-27T05:49:59.957Z,-1.70
2018-12-27T05:52:28.361Z,-1.80
2018-12-27T05:54:56.854Z,-1.80
2018-12-27T05:57:25.278Z,-1.90
2018-12-27T05:59:53.699Z,-1.80
2018-12-27T06:02:22.142Z,-1.70
2018-12-27T06:04:50.834Z,-1.70
2018-12-27T06:07:19.248Z,-1.50
2018-12-27T06:09:47.730Z,-1.40
2018-12-27T06:12:16.149Z,-1.40
2018-12-27T06:14:44.591Z,-1.50
2018-12-27T06:17:12.995Z,-1.70
2018-12-27T06:19:41.409Z,-1.70
2018-12-27T06:22:09.823Z,-1.70
2018-12-27T06:24:38.586Z,-1.60
2018-12-27T06:27:07.032Z,-1.60
2018-12-27T06:29:35.487Z,-1.80
2018-12-27T06:32:04.020Z,-1.70
2018-12-27T06:34:32.428Z,-1.60
2018-12-27T06:37:00.836Z,-1.70
2018-12-27T06:39:29.332Z,-1.90
2018-12-27T06:41:59.406Z,-2.00
2018-12-27T06:44:27.879Z,-2.10
2018-12-27T06:46:56.290Z,-2.10
2018-12-27T06:49:24.699Z,-2.00
2018-12-27T06:51:53.134Z,-1.90
2018-12-27T06:54:21.820Z,-1.90
2018-12-27T06:56:50.241Z,-2.00
2018-12-27T06:59:18.668Z,-1.90
2018-12-27T07:01:47.086Z,-2.00
2018-12-27T07:04:15.534Z,-2.10
2018-12-27T07:06:43.932Z,-2.10
2018-12-27T07:09:12.705Z,-2.10
2018-12-27T07:11:41.134Z,-1.90
2018-12-27T07:14:09.570Z,-1.90
2018-12-27T07:16:37.980Z,-1.80
2018-12-27T07:19:06.469Z,-1.80
2018-12-27T07:21:34.971Z,-1.80
2018-12-27T07:24:03.419Z,-1.70
2018-12-27T07:26:31.823Z,-1.70
2018-12-27T07:29:00.251Z,-1.60
2018-12-27T07:31:28.665Z,-1.50
2018-12-27T07:33:57.153Z,-1.40
2018-12-27T07:36:25.560Z,-1.30
2018-12-27T07:38:54.033Z,-1.40
2018-12-27T07:41:22.433Z,-1.50
2018-12-27T07:43:50.918Z,-1.60
2018-12-27T07:46:19.333Z,-1.70
2018-12-27T07:48:47.753Z,-1.70
2018-12-27T07:51:16.600Z,-1.70
2018-12-27T07:53:45.043Z,-1.70
2018-12-27T07:56:32.804Z,-1.70
2018-12-27T07:59:01.206Z,-1.70
2018-12-27T08:01:29.653Z,-1.70
2018-12-27T08:03:58.076Z,-1.70
2018-12-27T08:06:26.487Z,-1.70
2018-12-27T08:08:54.916Z,-1.60
2018-12-27T08:11:23.346Z,-1.60
2018-12-27T08:13:51.738Z,-1.40
2018-12-27T08:16:20.152Z,-1.20
2018-12-27T08:18:48.565Z,-1.10
2018-12-27T08:21:17.008Z,-1.00
2018-12-27T08:23:45.506Z,-1.10
2018-12-27T08:26:13.916Z,-1.10
2018-12-27T08:28:42.395Z,-1.00
2018-12-27T08:31:10.808Z,-1.10
2018-12-27T08:33:39.219Z,-1.10
2018-12-27T08:36:07.675Z,-1.00
2018-12-27T08:38:36.089Z,-1.00
2018-12-27T08:41:04.501Z,-1.00
2018-12-27T08:43:32.903Z,-1.00
2018-12-27T08:46:01.342Z,-1.00
2018-12-27T08:48:29.773Z,-1.00
2018-12-27T08:50:58.188Z,-1.00
2018-12-27T08:53:26.605Z,-0.90
2018-12-27T08:55:55.089Z,-0.90
2018-12-27T08:58:23.492Z,-0.70
2018-12-27T09:00:51.928Z,-0.70
2018-12-27T09:03:20.330Z,-0.70
2018-12-27T09:05:48.747Z,-0.90
2018-12-27T09:08:17.162Z,-0.90
2018-12-27T09:10:45.573Z,-0.90
2018-12-27T09:13:14.015Z,-0.90
2018-12-27T09:15:42.424Z,-0.80
2018-12-27T09:18:11.093Z,-0.80
2018-12-27T09:20:39.527Z,-0.80
2018-12-27T09:23:07.948Z,-0.70
2018-12-27T09:25:36.351Z,-0.50
2018-12-27T09:28:04.809Z,-0.40
2018-12-27T09:30:33.209Z,-0.30
2018-12-27T09:33:01.642Z,-0.10
2018-12-27T09:35:30.081Z,-0.10
2018-12-27T09:37:58.503Z,0.10
2018-12-27T09:40:27.247Z,0.20
2018-12-27T09:42:55.693Z,0.40
2018-12-27T09:45:24.132Z,0.80
2018-12-27T09:47:52.622Z,1.10
2018-12-27T09:50:21.362Z,1.30
2018-12-27T09:52:49.780Z,1.60
2018-12-27T09:55:18.188Z,1.70
2018-12-27T09:57:46.610Z,1.90
2018-12-27T10:00:15.288Z,1.90
2018-12-27T10:02:43.980Z,1.90
2018-12-27T10:05:12.389Z,1.90
2018-12-27T10:07:40.831Z,1.90
2018-12-27T10:10:09.224Z,2.00
2018-12-27T10:12:37.687Z,1.90
2018-12-27T10:15:08.290Z,1.90
2018-12-27T10:17:36.701Z,2.00
2018-12-27T10:20:06.446Z,2.10
2018-12-27T10:22:35.523Z,2.30
2018-12-27T10:25:05.492Z,2.40
2018-12-27T10:27:33.904Z,2.50
2018-12-27T10:30:02.734Z,2.50
2018-12-27T10:32:31.141Z,2.40
2018-12-27T10:34:59.556Z,2.30
2018-12-27T10:37:27.973Z,2.30
2018-12-27T10:39:56.367Z,2.20
2018-12-27T10:42:24.801Z,2.30
2018-12-27T10:44:53.229Z,2.30
2018-12-27T10:47:21.641Z,2.30
2018-12-27T10:49:50.053Z,2.20
2018-12-27T10:52:18.458Z,2.10
2018-12-27T10:54:46.865Z,2.20
2018-12-27T10:57:15.325Z,2.20
2018-12-27T10:59:43.733Z,2.20
2018-12-27T11:02:12.139Z,2.30
2018-12-27T11:04:40.554Z,2.40
2018-12-27T11:07:08.965Z,2.50
2018-12-27T11:09:37.391Z,2.60
2018-12-27T11:12:05.810Z,2.50
2018-12-27T11:14:34.223Z,2.40
2018-12-27T11:17:02.680Z,2.30
2018-12-27T11:19:31.115Z,2.30
2018-12-27T11:21:59.546Z,2.20
2018-12-27T11:24:27.964Z,2.30
2018-12-27T11:26:56.392Z,2.30
2018-12-27T11:29:25.157Z,2.30
2018-12-27T11:31:53.681Z,2.30
2018-12-27T11:34:22.135Z,2.40
2018-12-27T11:36:50.822Z,2.30
2018-12-27T11:39:19.261Z,2.40
2018-12-27T11:41:47.657Z,2.40
2018-12-27T11:44:16.071Z,2.50
2018-12-27T11:46:44.608Z,2.40
2018-12-27T11:49:13.040Z,2.30
2018-12-27T11:51:41.835Z,2.40
2018-12-27T11:54:10.240Z,2.60
2018-12-27T11:56:38.681Z,2.60
2018-12-27T11:59:07.153Z,2.70
2018-12-27T12:01:35.594Z,2.80
2018-12-27T12:04:04.016Z,2.90
2018-12-27T12:06:32.446Z,3.00
2018-12-27T12:09:00.856Z,3.10
2018-12-27T12:11:29.264Z,3.10
2018-12-27T12:13:57.673Z,3.10
2018-12-27T12:16:26.079Z,3.10
2018-12-27T12:18:54.498Z,3.20
2018-12-27T12:21:22.934Z,3.30
2018-12-27T12:23:51.326Z,3.30
2018-12-27T12:26:19.757Z,3.40
2018-12-27T12:28:48.174Z,3.30
2018-12-27T12:31:16.618Z,3.20
2018-12-27T12:33:45.113Z,3.20
2018-12-27T12:36:13.595Z,3.10
2018-12-27T12:38:42.197Z,3.10
2018-12-27T12:41:10.631Z,2.90
2018-12-27T12:43:39.022Z,2.80
2018-12-27T12:46:07.449Z,2.80
2018-12-27T12:48:35.864Z,2.70
2018-12-27T12:51:04.266Z,2.80
2018-12-27T12:53:32.684Z,2.70
2018-12-27T12:56:01.461Z,2.70
2018-12-27T12:58:29.908Z,2.80
2018-12-27T13:00:58.420Z,2.80
2018-12-27T13:03:26.857Z,2.80
2018-12-27T13:05:55.286Z,2.70
2018-12-27T13:08:23.670Z,2.70
2018-12-27T13:10:52.129Z,2.90
2018-12-27T13:13:39.905Z,2.80
2018-12-27T13:16:08.309Z,2.70
2018-12-27T13:18:36.742Z,2.70
2018-12-27T13:21:05.203Z,2.70
2018-12-27T13:23:33.623Z,2.60
2018-12-27T13:26:02.063Z,2.60
2018-12-27T13:28:30.459Z,2.60
2018-12-27T13:30:58.881Z,2.60
2018-12-27T13:33:27.382Z,2.60
2018-12-27T13:35:55.786Z,2.50
2018-12-27T13:38:24.189Z,2.40
2018-12-27T13:40:52.606Z,2.40
2018-12-27T13:43:21.057Z,2.30
2018-12-27T13:45:49.616Z,2.10
2018-12-27T13:48:18.029Z,2.10
2018-12-27T13:50:46.472Z,2.00
2018-12-27T13:53:15.011Z,2.00
2018-12-27T13:55:44.289Z,2.00
2018-12-27T13:58:12.768Z,1.90
2018-12-27T14:00:41.165Z,1.80
2018-12-27T14:03:10.013Z,1.80
2018-12-27T14:05:38.453Z,1.70
2018-12-27T14:08:06.871Z,1.60
2018-12-27T14:10:35.273Z,1.50
2018-12-27T14:13:03.696Z,1.60
2018-12-27T14:15:32.111Z,1.70
2018-12-27T14:18:00.535Z,1.80
2018-12-27T14:20:29.187Z,1.70
2018-12-27T14:22:57.600Z,1.80
2018-12-27T14:25:26.059Z,1.80
2018-12-27T14:27:54.522Z,1.80
2018-12-27T14:30:22.989Z,1.90
2018-12-27T14:32:51.441Z,1.90
2018-12-27T14:35:19.843Z,2.00
2018-12-27T14:37:48.277Z,2.00
2018-12-27T14:40:16.730Z,1.90
2018-12-27T14:42:45.146Z,1.90
2018-12-27T14:45:13.629Z,1.80
2018-12-27T14:47:43.214Z,1.70
2018-12-27T14:50:11.818Z,1.70
2018-12-27T14:52:40.270Z,1.80
2018-12-27T14:55:08.657Z,1.80
2018-12-27T14:57:37.068Z,1.70
2018-12-27T15:00:08.814Z,1.70
2018-12-27T15:02:37.224Z,1.60
2018-12-27T15:05:05.869Z,1.70
2018-12-27T15:07:34.264Z,1.70
2018-12-27T15:10:02.717Z,1.70
2018-12-27T15:12:31.149Z,1.70
2018-12-27T15:14:59.672Z,1.60
2018-12-27T15:17:28.068Z,1.60
2018-12-27T15:19:56.485Z,1.50
2018-12-27T15:22:24.885Z,1.50
2018-12-27T15:24:54.141Z,1.50
2018-12-27T15:27:22.693Z,1.50
2018-12-27T15:29:51.149Z,1.50
2018-12-27T15:32:19.538Z,1.50
2018-12-27T15:34:47.985Z,1.60
2018-12-27T15:37:16.384Z,1.50
2018-12-27T15:39:44.797Z,1.50
2018-12-27T15:42:13.207Z,1.50
2018-12-27T15:44:41.638Z,1.50
2018-12-27T15:47:10.048Z,1.40
2018-12-27T15:49:38.472Z,1.40
2018-12-27T15:52:07.231Z,1.30
2018-12-27T15:54:35.644Z,1.40
2018-12-27T15:57:04.082Z,1.40
2018-12-27T15:59:32.553Z,1.40
2018-12-27T16:02:01.024Z,1.50
2018-12-27T16:04:29.466Z,1.50
2018-12-27T16:07:01.766Z,1.50
2018-12-27T16:09:28.070Z,1.60
2018-12-27T16:11:56.502Z,1.60
2018-12-27T16:14:24.980Z,1.50
2018-12-27T16:16:53.441Z,1.40
2018-12-27T16:19:21.899Z,1.50
2018-12-27T16:21:50.304Z,1.50
2018-12-27T16:24:18.726Z,1.50
2018-12-27T16:26:47.141Z,1.50
2018-12-27T16:29:15.657Z,1.50
2018-12-27T16:31:44.066Z,1.70
2018-12-27T16:34:12.479Z,1.70
2018-12-27T16:36:40.955Z,1.60
2018-12-27T16:39:09.421Z,1.50
2018-12-27T16:41:37.857Z,1.50
2018-12-27T16:44:06.277Z,1.60
2018-12-27T16:46:34.965Z,1.50
2018-12-27T16:49:03.417Z,1.40
2018-12-27T16:51:31.877Z,1.40
2018-12-27T16:54:00.329Z,1.40
2018-12-27T16:56:28.756Z,1.40
2018-12-27T16:58:57.161Z,1.40
2018-12-27T17:01:25.569Z,1.30
2018-12-27T17:03:54.031Z,1.40
2018-12-27T17:06:22.424Z,1.40
2018-12-27T17:08:50.874Z,1.40
2018-12-27T17:11:19.591Z,1.20
2018-12-27T17:13:48.069Z,1.20
2018-12-27T17:16:16.509Z,1.20
2018-12-27T17:18:45.235Z,1.20
2018-12-27T17:21:13.649Z,1.20
2018-12-27T17:23:42.413Z,1.20
2018-12-27T17:26:11.089Z,1.20
2018-12-27T17:28:39.531Z,1.20
2018-12-27T17:31:07.936Z,1.20
2018-12-27T17:33:36.362Z,1.30
2018-12-27T17:36:04.785Z,1.30
2018-12-27T17:38:33.188Z,1.30
2018-12-27T17:41:01.630Z,1.30
2018-12-27T17:43:30.025Z,1.30
2018-12-27T17:45:58.432Z,1.30
2018-12-27T17:48:26.864Z,1.10
2018-12-27T17:50:55.312Z,1.10
2018-12-27T17:53:23.709Z,1.00
2018-12-27T17:55:52.198Z,1.00
2018-12-27T17:58:20.618Z,1.00
2018-12-27T18:00:49.034Z,1.00
2018-12-27T18:03:20.527Z,1.00
2018-12-27T18:05:48.941Z,1.00
2018-12-27T18:08:17.357Z,1.00
2018-12-27T18:10:45.769Z,1.00
2018-12-27T18:13:14.166Z,1.00
2018-12-27T18:15:43.030Z,1.00
2018-12-27T18:18:11.425Z,0.90
2018-12-27T18:20:39.853Z,0.90
2018-12-27T18:23:08.314Z,1.00
2018-12-27T18:25:36.735Z,1.00
2018-12-27T18:28:05.138Z,1.00
2018-12-27T18:30:33.571Z,1.00
2018-12-27T18:33:01.977Z,0.90
2018-12-27T18:35:30.445Z,0.90
2018-12-27T18:37:58.904Z,0.90
2018-12-27T18:40:27.309Z,0.90
2018-12-27T18:42:55.724Z,1.00
2018-12-27T18:45:24.121Z,1.00
2018-12-27T18:47:52.573Z,1.00
2018-12-27T18:50:20.979Z,1.10
2018-12-27T18:52:49.389Z,1.10
2018-12-27T18:55:20.198Z,1.10
2018-12-27T18:57:47.951Z,1.20
2018-12-27T19:00:16.377Z,1.20
2018-12-27T19:02:44.795Z,1.10
2018-12-27T19:05:13.201Z,1.00
2018-12-27T19:07:44.918Z,0.90
2018-12-27T19:10:11.766Z,0.90
2018-12-27T19:13:03.058Z,0.90
2018-12-27T19:15:33.434Z,0.80
2018-12-27T19:18:02.324Z,0.80
2018-12-27T19:20:30.735Z,0.80
2018-12-27T19:23:02.233Z,0.70
2018-12-27T19:25:30.632Z,0.50
2018-12-27T19:27:59.046Z,0.40
2018-12-27T19:30:27.525Z,0.30
2018-12-27T19:32:55.953Z,0.20
2018-12-27T19:35:24.401Z,0.20
2018-12-27T19:37:52.898Z,0.30
2018-12-27T19:40:21.302Z,0.40
2018-12-27T19:42:49.981Z,0.30
2018-12-27T19:45:18.665Z,0.40
2018-12-27T19:47:47.093Z,0.40
2018-12-27T19:50:15.842Z,0.50
2018-12-27T19:52:44.274Z,0.40
2018-12-27T19:55:12.708Z,0.40
2018-12-27T19:57:41.128Z,0.50
2018-12-27T20:00:09.604Z,0.50
2018-12-27T20:02:38.021Z,0.60
2018-12-27T20:05:06.433Z,0.60
2018-12-27T20:07:34.845Z,0.60
2018-12-27T20:10:03.947Z,0.70
2018-12-27T20:12:32.457Z,0.60
2018-12-27T20:15:00.941Z,0.50
2018-12-27T20:17:29.381Z,0.60
2018-12-27T20:19:57.884Z,0.70
2018-12-27T20:22:26.721Z,0.70
2018-12-27T20:24:55.149Z,0.80
2018-12-27T20:27:23.590Z,0.80
2018-12-27T20:29:52.019Z,0.80
2018-12-27T20:32:20.416Z,0.80
2018-12-27T20:34:48.830Z,0.80
2018-12-27T20:37:17.233Z,0.90
2018-12-27T20:39:45.664Z,0.90
2018-12-27T20:42:14.057Z,0.80
2018-12-27T20:44:42.503Z,0.80
2018-12-27T20:47:10.901Z,0.80
2018-12-27T20:49:39.593Z,0.80
2018-12-27T20:52:08.059Z,0.80
2018-12-27T20:54:36.649Z,0.80
2018-12-27T20:57:05.074Z,0.70
2018-12-27T20:59:33.474Z,0.60
2018-12-27T21:02:01.892Z,0.60
2018-12-27T21:04:30.296Z,0.60
2018-12-27T21:06:59.685Z,0.50
2018-12-27T21:09:28.219Z,0.60
2018-12-27T21:11:56.661Z,0.50
2018-12-27T21:14:25.062Z,0.50
2018-12-27T21:16:53.499Z,0.50
2018-12-27T21:19:21.928Z,0.50
2018-12-27T21:21:50.709Z,0.40
2018-12-27T21:24:19.111Z,0.40
2018-12-27T21:26:47.530Z,0.40
2018-12-27T21:29:15.932Z,0.50
2018-12-27T21:31:44.670Z,0.50
2018-12-27T21:34:13.140Z,0.50
2018-12-27T21:36:41.586Z,0.50
2018-12-27T21:39:10.037Z,0.40
2018-12-27T21:41:38.436Z,0.40
2018-12-27T21:44:06.881Z,0.40
2018-12-27T21:46:35.269Z,0.40
2018-12-27T21:49:03.695Z,0.50
2018-12-27T21:51:32.133Z,0.30
2018-12-27T21:54:00.557Z,0.30
2018-12-27T21:56:29.272Z,0.30
2018-12-27T21:58:57.689Z,0.20
2018-12-27T22:01:26.173Z,0.20
2018-12-27T22:03:54.602Z,0.20
2018-12-27T22:06:23.037Z,0.30
2018-12-27T22:08:51.437Z,0.20
2018-12-27T22:11:19.849Z,0.30
2018-12-27T22:13:48.261Z,0.20
2018-12-27T22:16:16.657Z,0.30
2018-12-27T22:18:45.070Z,0.30
2018-12-27T22:21:13.778Z,0.30
2018-12-27T22:23:42.233Z,0.30
2018-12-27T22:26:10.662Z,0.40
2018-12-27T22:28:39.091Z,0.50
2018-12-27T22:31:07.495Z,0.50
2018-12-27T22:33:35.901Z,0.50
2018-12-27T22:36:04.343Z,0.60
2018-12-27T22:38:35.739Z,0.60
2018-12-27T22:41:02.954Z,0.60
2018-12-27T22:43:31.409Z,0.70
2018-12-27T22:46:00.230Z,0.70
2018-12-27T22:48:28.653Z,0.70
2018-12-27T22:50:57.089Z,0.60
2018-12-27T22:53:25.500Z,0.60
2018-12-27T22:55:56.949Z,0.60
2018-12-27T22:58:25.411Z,0.60
2018-12-27T23:00:54.490Z,0.50
2018-12-27T23:03:22.953Z,0.50
2018-12-27T23:05:51.366Z,0.30
2018-12-27T23:08:20.059Z,0.20
2018-12-27T23:10:48.480Z,0.20
2018-12-27T23:13:16.922Z,0.30
2018-12-27T23:15:45.351Z,0.30
2018-12-27T23:18:13.756Z,0.30
2018-12-27T23:20:42.237Z,0.30
2018-12-27T23:23:10.638Z,0.40
2018-12-27T23:25:39.072Z,0.40
2018-12-27T23:28:07.472Z,0.40
2018-12-27T23:30:36.192Z,0.40
2018-12-27T23:33:04.605Z,0.40
2018-12-27T23:35:33.034Z,0.40
2018-12-27T23:38:01.429Z,0.40
2018-12-27T23:40:29.846Z,0.30
2018-12-27T23:42:58.259Z,0.30
2018-12-27T23:45:26.697Z,0.30
2018-12-27T23:47:55.195Z,0.40
2018-12-27T23:50:24.969Z,0.30
2018-12-27T23:52:53.373Z,0.40
2018-12-27T23:55:21.793Z,0.40
2018-12-27T23:57:50.193Z,0.40
